Terminal Aerodrome Forecast
Issued by NWS Portland, OR

Home | Current Version | Previous Version | Text Only | Print | Product List | Glossary On
Versions: 1 2 3 4 5 6 7 8 9 10 11 12 13 14 15 16 17 18 19 20 21 22 23 24 25 26
000
FTUS46 KPQR 071141
TAFHIO
TAF
KHIO 071141Z 0712/0812 VRB03KT 4SM BR SCT012
     FM071400 VRB03KT 6SM BR BKN012
     FM071700 06005KT P6SM SKC
     FM072100 07012KT P6SM SCT200
     FM080300 08017G25KT P6SM BKN150=

USA.gov is the U.S. government's official web portal to all federal, state and local government web resources and services.